createdAt,value
2022-07-28T00:01:18.605Z,12.80
2022-07-28T00:03:47.470Z,12.80
2022-07-28T00:06:14.508Z,12.80
2022-07-28T00:08:42.032Z,12.80
2022-07-28T00:11:09.028Z,12.70
2022-07-28T00:13:36.001Z,12.70
2022-07-28T00:16:03.696Z,12.70
2022-07-28T00:18:30.850Z,12.60
2022-07-28T00:20:57.894Z,12.50
2022-07-28T00:23:38.428Z,12.50
2022-07-28T00:26:07.970Z,12.50
2022-07-28T00:28:36.166Z,12.50
2022-07-28T00:31:05.569Z,12.50
2022-07-28T00:33:35.367Z,12.50
2022-07-28T00:36:03.190Z,12.50
2022-07-28T00:38:30.209Z,12.50
2022-07-28T00:40:57.206Z,12.40
2022-07-28T00:43:24.588Z,12.40
2022-07-28T00:45:51.631Z,12.30
2022-07-28T00:48:18.643Z,12.30
2022-07-28T00:50:46.557Z,12.30
2022-07-28T00:53:13.615Z,12.20
2022-07-28T00:56:05.496Z,12.20
2022-07-28T00:58:28.311Z,12.20
2022-07-28T01:00:55.608Z,12.20
2022-07-28T01:03:23.464Z,12.20
2022-07-28T01:06:04.335Z,12.20
2022-07-28T01:09:10.178Z,12.20
2022-07-28T01:11:53.216Z,12.20
2022-07-28T01:14:38.579Z,12.10
2022-07-28T01:17:17.295Z,12.10
2022-07-28T01:19:54.767Z,12.00
2022-07-28T01:22:25.427Z,12.00
2022-07-28T01:25:20.905Z,12.00
2022-07-28T01:28:13.269Z,12.00
2022-07-28T01:30:43.775Z,11.90
2022-07-28T01:33:20.230Z,11.90
2022-07-28T01:36:02.785Z,11.90
2022-07-28T01:38:33.080Z,11.90
2022-07-28T01:41:02.625Z,11.90
2022-07-28T01:43:34.656Z,11.80
2022-07-28T01:46:03.560Z,11.80
2022-07-28T01:48:33.150Z,11.80
2022-07-28T01:51:02.037Z,11.80
2022-07-28T01:53:32.133Z,11.70
2022-07-28T01:56:05.933Z,11.70
2022-07-28T01:58:35.416Z,11.70
2022-07-28T02:01:03.714Z,11.70
2022-07-28T02:03:32.719Z,11.70
2022-07-28T02:06:01.585Z,11.70
2022-07-28T02:08:30.183Z,11.60
2022-07-28T02:10:59.334Z,11.60
2022-07-28T02:13:26.696Z,11.60
2022-07-28T02:15:54.834Z,11.60
2022-07-28T02:18:23.317Z,11.60
2022-07-28T02:20:51.246Z,11.60
2022-07-28T02:23:19.768Z,11.60
2022-07-28T02:25:47.287Z,11.60
2022-07-28T02:28:16.797Z,11.60
2022-07-28T02:31:00.472Z,11.60
2022-07-28T02:33:58.835Z,11.60
2022-07-28T02:36:24.803Z,11.60
2022-07-28T02:38:56.137Z,11.60
2022-07-28T02:41:27.112Z,11.70
2022-07-28T02:43:59.687Z,11.70
2022-07-28T02:46:32.698Z,11.60
2022-07-28T02:49:05.562Z,11.60
2022-07-28T02:51:34.806Z,11.60
2022-07-28T02:54:03.171Z,11.60
2022-07-28T02:56:31.092Z,11.60
2022-07-28T02:58:59.848Z,11.50
2022-07-28T03:01:27.889Z,11.50
2022-07-28T03:03:56.606Z,11.50
2022-07-28T03:06:26.523Z,11.40
2022-07-28T03:08:57.655Z,11.40
2022-07-28T03:11:25.177Z,11.40
2022-07-28T03:13:52.167Z,11.30
2022-07-28T03:16:19.636Z,11.30
2022-07-28T03:18:46.704Z,11.30
2022-07-28T03:21:13.821Z,11.30
2022-07-28T03:23:43.704Z,11.30
2022-07-28T03:26:32.895Z,11.30
2022-07-28T03:29:01.541Z,11.30
2022-07-28T03:31:30.506Z,11.30
2022-07-28T03:33:57.887Z,11.40
2022-07-28T03:36:35.829Z,11.40
2022-07-28T03:39:06.269Z,11.50
2022-07-28T03:41:34.440Z,11.60
2022-07-28T03:44:01.907Z,11.80
2022-07-28T03:46:29.291Z,12.00
2022-07-28T03:48:56.877Z,12.30
2022-07-28T03:51:23.946Z,12.50
2022-07-28T03:53:51.059Z,12.80
2022-07-28T03:56:18.345Z,13.10
2022-07-28T03:58:45.456Z,13.40
2022-07-28T04:01:12.571Z,13.60
2022-07-28T04:03:43.988Z,13.90
2022-07-28T04:06:14.924Z,14.20
2022-07-28T04:08:43.630Z,14.50
2022-07-28T04:11:11.083Z,14.70
2022-07-28T04:13:38.256Z,15.00
2022-07-28T04:16:07.108Z,15.20
2022-07-28T04:18:34.515Z,15.40
2022-07-28T04:21:01.575Z,15.70
2022-07-28T04:23:29.153Z,15.90
2022-07-28T04:25:56.248Z,16.20
2022-07-28T04:28:23.262Z,16.40
2022-07-28T04:30:50.721Z,16.60
2022-07-28T04:33:17.828Z,16.90
2022-07-28T04:35:45.074Z,17.10
2022-07-28T04:38:12.904Z,17.30
2022-07-28T04:40:39.964Z,17.60
2022-07-28T04:43:07.055Z,17.80
2022-07-28T04:45:34.579Z,18.10
2022-07-28T04:48:01.673Z,18.40
2022-07-28T04:50:28.701Z,18.60
2022-07-28T04:52:56.121Z,18.90
2022-07-28T04:55:23.161Z,19.20
2022-07-28T04:57:50.159Z,19.50
2022-07-28T05:00:18.317Z,19.80
2022-07-28T05:02:46.192Z,20.10
2022-07-28T05:05:13.507Z,20.40
2022-07-28T05:07:41.756Z,20.80
2022-07-28T05:10:11.151Z,21.10
2022-07-28T05:12:38.583Z,21.50
2022-07-28T05:15:07.348Z,21.90
2022-07-28T05:17:34.531Z,22.10
2022-07-28T05:20:03.320Z,22.50
2022-07-28T05:22:42.256Z,22.80
2022-07-28T05:25:20.856Z,23.10
2022-07-28T05:27:48.713Z,23.50
2022-07-28T05:30:16.865Z,23.80
2022-07-28T05:32:44.496Z,24.10
2022-07-28T05:35:12.403Z,24.60
2022-07-28T05:37:39.470Z,24.80
2022-07-28T05:40:12.352Z,25.10
2022-07-28T05:42:40.530Z,25.70
2022-07-28T05:45:17.043Z,26.10
2022-07-28T05:47:49.848Z,26.60
2022-07-28T05:50:18.028Z,27.40
2022-07-28T05:52:46.674Z,28.30
2022-07-28T05:55:14.466Z,29.30
2022-07-28T05:57:42.108Z,30.00
2022-07-28T06:00:13.318Z,29.80
2022-07-28T06:02:41.741Z,30.70
2022-07-28T06:05:09.378Z,31.50
2022-07-28T06:07:43.173Z,32.00
2022-07-28T06:10:13.241Z,32.80
2022-07-28T06:12:49.398Z,33.50
2022-07-28T06:15:21.719Z,33.70
2022-07-28T06:17:50.437Z,34.60
2022-07-28T06:20:17.743Z,35.30
2022-07-28T06:22:47.453Z,36.10
2022-07-28T06:25:23.456Z,36.70
2022-07-28T06:27:52.426Z,37.00
2022-07-28T06:30:20.486Z,36.70
2022-07-28T06:32:48.318Z,36.20
2022-07-28T06:35:16.890Z,35.90
2022-07-28T06:37:45.344Z,35.90
2022-07-28T06:40:13.320Z,36.00
2022-07-28T06:42:41.631Z,36.80
2022-07-28T06:45:10.080Z,37.10
2022-07-28T06:47:48.786Z,37.00
2022-07-28T06:50:26.001Z,36.90
2022-07-28T06:52:55.785Z,37.00
2022-07-28T06:55:23.501Z,37.80
2022-07-28T06:57:51.068Z,38.70
2022-07-28T07:00:18.336Z,39.40
2022-07-28T07:02:45.753Z,38.20
2022-07-28T07:05:12.996Z,37.80
2022-07-28T07:07:43.284Z,38.20
2022-07-28T07:10:12.324Z,39.10
2022-07-28T07:12:39.604Z,39.20
2022-07-28T07:15:07.611Z,39.80
2022-07-28T07:17:35.075Z,40.10
2022-07-28T07:20:02.127Z,40.20
2022-07-28T07:22:29.347Z,41.00
2022-07-28T07:24:57.936Z,40.80
2022-07-28T07:27:25.130Z,41.00
2022-07-28T07:29:52.283Z,41.10
2022-07-28T07:32:19.614Z,42.00
2022-07-28T07:34:46.594Z,42.30
2022-07-28T07:37:13.805Z,42.10
2022-07-28T07:39:42.072Z,42.30
2022-07-28T07:42:09.234Z,42.60
2022-07-28T07:44:36.515Z,43.10
2022-07-28T07:47:04.338Z,43.10
2022-07-28T07:49:45.093Z,42.90
2022-07-28T07:52:14.451Z,42.00
2022-07-28T07:54:42.311Z,42.10
2022-07-28T07:57:09.933Z,42.10
2022-07-28T07:59:37.795Z,42.40
2022-07-28T08:02:05.209Z,42.30
2022-07-28T08:04:37.022Z,41.80
2022-07-28T08:07:05.738Z,41.00
2022-07-28T08:09:33.635Z,40.40
2022-07-28T08:12:00.688Z,39.60
2022-07-28T08:14:28.216Z,39.50
2022-07-28T08:16:55.259Z,38.90
2022-07-28T08:19:22.496Z,38.30
2022-07-28T08:21:51.289Z,38.00
2022-07-28T08:24:33.791Z,36.70
2022-07-28T08:27:04.984Z,35.50
2022-07-28T08:29:32.005Z,34.00
2022-07-28T08:31:59.169Z,33.10
2022-07-28T08:34:33.315Z,32.80
2022-07-28T08:37:03.416Z,32.40
2022-07-28T08:39:32.060Z,31.90
2022-07-28T08:42:13.873Z,31.20
2022-07-28T08:45:04.347Z,30.40
2022-07-28T08:47:46.087Z,29.60
2022-07-28T08:50:21.958Z,29.70
2022-07-28T08:52:53.168Z,29.90
2022-07-28T08:55:25.558Z,29.40
2022-07-28T08:58:00.036Z,29.20
2022-07-28T09:00:27.714Z,29.00
2022-07-28T09:02:57.086Z,28.90
2022-07-28T09:05:24.864Z,28.90
2022-07-28T09:07:54.946Z,28.90
2022-07-28T09:10:22.919Z,28.50
2022-07-28T09:12:50.540Z,28.30
2022-07-28T09:15:17.750Z,28.20
2022-07-28T09:17:44.877Z,28.10
2022-07-28T09:20:12.952Z,27.90
2022-07-28T09:23:01.546Z,27.60
2022-07-28T09:25:29.782Z,27.50
2022-07-28T09:28:05.227Z,27.40
2022-07-28T09:30:34.859Z,27.00
2022-07-28T09:33:41.399Z,27.00
2022-07-28T09:36:14.943Z,26.90
2022-07-28T09:38:42.159Z,26.60
2022-07-28T09:41:09.450Z,26.40
2022-07-28T09:43:39.110Z,26.20
2022-07-28T09:46:12.297Z,26.20
2022-07-28T09:48:49.139Z,26.00
2022-07-28T09:51:19.771Z,25.80
2022-07-28T09:53:47.264Z,25.40
2022-07-28T09:56:14.465Z,25.40
2022-07-28T09:58:52.241Z,25.30
2022-07-28T10:01:20.164Z,25.30
2022-07-28T10:03:51.335Z,25.30
2022-07-28T10:06:25.879Z,25.30
2022-07-28T10:08:54.035Z,25.30
2022-07-28T10:11:22.537Z,25.10
2022-07-28T10:13:55.239Z,25.00
2022-07-28T10:16:25.532Z,25.00
2022-07-28T10:18:53.225Z,24.70
2022-07-28T10:21:22.475Z,24.70
2022-07-28T10:23:59.218Z,24.70
2022-07-28T10:26:31.655Z,24.50
2022-07-28T10:29:02.866Z,24.50
2022-07-28T10:31:34.864Z,24.40
2022-07-28T10:34:03.697Z,24.30
2022-07-28T10:36:33.285Z,24.30
2022-07-28T10:39:05.498Z,24.20
2022-07-28T10:41:40.324Z,24.20
2022-07-28T10:44:08.719Z,24.20
2022-07-28T10:46:37.404Z,24.20
2022-07-28T10:49:05.183Z,24.10
2022-07-28T10:51:48.811Z,24.20
2022-07-28T10:54:30.759Z,24.20
2022-07-28T10:57:04.961Z,24.20
2022-07-28T11:00:12.213Z,24.20
2022-07-28T11:02:52.926Z,24.40
2022-07-28T11:05:26.835Z,24.50
2022-07-28T11:07:54.434Z,24.50
2022-07-28T11:10:22.576Z,24.50
2022-07-28T11:12:58.035Z,24.20
2022-07-28T11:15:28.277Z,24.10
2022-07-28T11:18:08.781Z,24.10
2022-07-28T11:20:51.964Z,24.00
2022-07-28T11:23:46.571Z,23.90
2022-07-28T11:26:20.173Z,23.70
2022-07-28T11:29:02.013Z,23.50
2022-07-28T11:31:44.460Z,23.60
2022-07-28T11:34:16.705Z,23.40
2022-07-28T11:37:03.248Z,23.40
2022-07-28T11:39:42.705Z,23.30
2022-07-28T11:42:28.778Z,23.80
2022-07-28T11:44:56.922Z,23.20
2022-07-28T11:47:25.867Z,23.00
2022-07-28T11:50:14.181Z,23.00
2022-07-28T11:52:55.981Z,23.10
2022-07-28T11:55:55.561Z,23.10
2022-07-28T11:58:27.606Z,23.10
2022-07-28T12:01:17.664Z,23.20
2022-07-28T12:03:55.442Z,23.30
2022-07-28T12:06:29.095Z,23.20
2022-07-28T12:09:01.215Z,23.20
2022-07-28T12:11:33.186Z,23.20
2022-07-28T12:14:02.530Z,23.10
2022-07-28T12:16:31.599Z,22.90
2022-07-28T12:19:00.041Z,22.80
2022-07-28T12:21:45.961Z,22.80
2022-07-28T12:24:15.850Z,22.90
2022-07-28T12:26:47.321Z,22.80
2022-07-28T12:29:16.133Z,22.80
2022-07-28T12:31:55.005Z,22.70
2022-07-28T12:34:24.315Z,22.70
2022-07-28T12:37:02.260Z,22.70
2022-07-28T12:39:31.719Z,22.90
2022-07-28T12:42:07.580Z,22.80
2022-07-28T12:44:42.380Z,22.80
2022-07-28T12:47:11.996Z,22.80
2022-07-28T12:49:41.119Z,22.80
2022-07-28T12:52:22.715Z,22.90
2022-07-28T12:54:54.829Z,22.80
2022-07-28T12:57:48.154Z,22.80
2022-07-28T13:00:18.626Z,22.60
2022-07-28T13:02:45.991Z,22.50
2022-07-28T13:05:27.034Z,22.50
2022-07-28T13:08:05.711Z,22.50
2022-07-28T13:10:33.147Z,22.50
2022-07-28T13:13:02.578Z,22.60
2022-07-28T13:15:29.663Z,22.70
2022-07-28T13:17:56.699Z,22.70
2022-07-28T13:20:24.748Z,22.70
2022-07-28T13:22:53.132Z,22.70
2022-07-28T13:25:20.946Z,22.60
2022-07-28T13:27:54.198Z,22.60
2022-07-28T13:30:23.243Z,22.40
2022-07-28T13:32:50.843Z,22.40
2022-07-28T13:35:18.189Z,22.50
2022-07-28T13:37:46.334Z,22.40
2022-07-28T13:40:13.738Z,22.40
2022-07-28T13:42:40.753Z,22.40
2022-07-28T13:45:22.249Z,22.40
2022-07-28T13:47:51.956Z,22.40
2022-07-28T13:50:19.817Z,22.40
2022-07-28T13:52:47.308Z,22.40
2022-07-28T13:55:17.748Z,22.40
2022-07-28T13:57:49.084Z,22.40
2022-07-28T14:00:17.736Z,22.40
2022-07-28T14:02:46.938Z,22.50
2022-07-28T14:05:14.008Z,22.50
2022-07-28T14:07:48.244Z,22.40
2022-07-28T14:10:17.598Z,22.40
2022-07-28T14:12:46.316Z,22.40
2022-07-28T14:15:14.421Z,22.40
2022-07-28T14:17:44.758Z,22.40
2022-07-28T14:20:14.759Z,22.50
2022-07-28T14:22:43.176Z,22.50
2022-07-28T14:25:10.885Z,22.40
2022-07-28T14:27:38.477Z,22.50
2022-07-28T14:30:06.869Z,22.40
2022-07-28T14:32:33.865Z,22.40
2022-07-28T14:35:02.334Z,22.40
2022-07-28T14:37:36.241Z,22.30
2022-07-28T14:40:09.121Z,22.30
2022-07-28T14:42:37.050Z,22.30
2022-07-28T14:45:04.342Z,22.30
2022-07-28T14:47:44.184Z,22.30
2022-07-28T14:50:13.430Z,22.30
2022-07-28T14:52:44.891Z,22.30
2022-07-28T14:55:12.905Z,22.40
2022-07-28T14:57:48.356Z,22.40
2022-07-28T15:00:20.579Z,22.30
2022-07-28T15:02:47.984Z,22.40
2022-07-28T15:05:15.243Z,22.30
2022-07-28T15:07:42.923Z,22.30
2022-07-28T15:10:10.574Z,22.30
2022-07-28T15:12:38.071Z,22.20
2022-07-28T15:15:05.994Z,22.20
2022-07-28T15:17:33.439Z,22.20
2022-07-28T15:20:00.435Z,22.20
2022-07-28T15:22:28.026Z,22.10
2022-07-28T15:24:55.018Z,22.20
2022-07-28T15:27:22.036Z,22.20
2022-07-28T15:29:52.092Z,22.20
2022-07-28T15:32:24.398Z,22.20
2022-07-28T15:34:56.065Z,22.20
2022-07-28T15:37:23.124Z,22.20
2022-07-28T15:39:50.306Z,22.10
2022-07-28T15:42:17.688Z,22.20
2022-07-28T15:44:44.795Z,22.20
2022-07-28T15:47:11.824Z,22.20
2022-07-28T15:49:39.358Z,22.20
2022-07-28T15:52:06.482Z,22.20
2022-07-28T15:54:33.469Z,22.20
2022-07-28T15:57:00.988Z,22.20
2022-07-28T15:59:49.062Z,22.20
2022-07-28T16:02:17.539Z,22.30
2022-07-28T16:04:51.064Z,22.30
2022-07-28T16:07:22.534Z,22.20
2022-07-28T16:09:51.507Z,22.20
2022-07-28T16:12:18.798Z,22.20
2022-07-28T16:14:46.275Z,22.30
2022-07-28T16:17:13.613Z,22.30
2022-07-28T16:19:50.033Z,22.20
2022-07-28T16:22:18.812Z,22.20
2022-07-28T16:24:46.199Z,22.20
2022-07-28T16:27:13.218Z,22.20
2022-07-28T16:29:41.454Z,22.30
2022-07-28T16:32:08.444Z,22.20
2022-07-28T16:34:35.459Z,22.20
2022-07-28T16:37:05.976Z,22.20
2022-07-28T16:39:34.053Z,22.20
2022-07-28T16:42:01.493Z,22.20
2022-07-28T16:44:29.634Z,22.10
2022-07-28T16:46:57.143Z,22.20
2022-07-28T16:49:24.909Z,22.20
2022-07-28T16:51:52.398Z,22.20
2022-07-28T16:54:20.013Z,22.20
2022-07-28T16:56:47.514Z,22.10
2022-07-28T16:59:15.096Z,22.10
2022-07-28T17:01:46.243Z,22.10
2022-07-28T17:04:17.454Z,22.00
2022-07-28T17:06:46.371Z,22.00
2022-07-28T17:09:14.923Z,22.00
2022-07-28T17:11:43.056Z,22.00
2022-07-28T17:14:11.530Z,22.00
2022-07-28T17:16:38.945Z,22.00
2022-07-28T17:19:06.174Z,21.90
2022-07-28T17:21:33.723Z,21.90
2022-07-28T17:24:00.785Z,21.90
2022-07-28T17:29:15.454Z,21.80
2022-07-28T17:31:42.595Z,21.80
2022-07-28T17:34:09.939Z,21.80
2022-07-28T17:36:37.519Z,21.80
2022-07-28T17:39:05.502Z,21.80
2022-07-28T17:41:33.421Z,21.80
2022-07-28T17:44:01.029Z,21.70
2022-07-28T17:46:29.239Z,21.70
2022-07-28T17:48:56.342Z,21.70
2022-07-28T17:51:23.868Z,21.70
2022-07-28T17:53:51.015Z,21.70
2022-07-28T17:56:18.434Z,21.60
2022-07-28T17:58:46.058Z,21.60
2022-07-28T18:01:14.423Z,21.50
2022-07-28T18:03:56.829Z,21.50
2022-07-28T18:06:37.574Z,21.40
2022-07-28T18:09:08.126Z,21.30
2022-07-28T18:11:56.966Z,21.20
2022-07-28T18:14:28.888Z,21.20
2022-07-28T18:16:57.491Z,21.20
2022-07-28T18:19:24.825Z,21.20
2022-07-28T18:21:51.887Z,21.10
2022-07-28T18:24:20.034Z,21.10
2022-07-28T18:26:47.927Z,21.00
2022-07-28T18:29:15.131Z,21.00
2022-07-28T18:31:46.480Z,20.90
2022-07-28T18:34:15.045Z,20.90
2022-07-28T18:36:42.620Z,20.80
2022-07-28T18:39:10.318Z,20.70
2022-07-28T18:41:47.350Z,20.70
2022-07-28T18:44:19.456Z,20.70
2022-07-28T18:46:47.269Z,20.70
2022-07-28T18:49:14.883Z,20.70
2022-07-28T18:51:45.200Z,20.60
2022-07-28T18:54:17.493Z,20.60
2022-07-28T18:56:47.970Z,20.50
2022-07-28T18:59:15.123Z,20.50
2022-07-28T19:01:42.217Z,20.50
2022-07-28T19:04:11.983Z,20.40
2022-07-28T19:06:39.075Z,20.40
2022-07-28T19:09:06.108Z,20.30
2022-07-28T19:11:33.700Z,20.30
2022-07-28T19:14:01.228Z,20.30
2022-07-28T19:16:28.314Z,20.20
2022-07-28T19:18:55.933Z,20.20
2022-07-28T19:21:23.555Z,20.20
2022-07-28T19:23:50.575Z,20.10
2022-07-28T19:26:18.197Z,20.10
2022-07-28T19:28:45.819Z,20.00
2022-07-28T19:31:12.929Z,19.90
2022-07-28T19:33:43.779Z,19.90
2022-07-28T19:36:12.257Z,19.90
2022-07-28T19:38:39.495Z,19.80
2022-07-28T19:41:10.289Z,19.80
2022-07-28T19:43:37.359Z,19.70
2022-07-28T19:46:04.587Z,19.60
2022-07-28T19:48:32.517Z,19.50
2022-07-28T19:51:00.811Z,19.40
2022-07-28T19:53:31.651Z,19.30
2022-07-28T19:55:59.767Z,19.10
2022-07-28T19:58:28.018Z,19.00
2022-07-28T20:00:56.423Z,18.90
2022-07-28T20:04:01.862Z,18.90
2022-07-28T20:06:12.333Z,18.80
2022-07-28T20:08:39.903Z,18.70
2022-07-28T20:11:07.326Z,18.60
2022-07-28T20:13:34.700Z,18.60
2022-07-28T20:16:02.255Z,18.50
2022-07-28T20:18:29.322Z,18.40
2022-07-28T20:20:56.410Z,18.40
2022-07-28T20:23:24.064Z,18.30
2022-07-28T20:25:51.045Z,18.20
2022-07-28T20:28:18.046Z,18.20
2022-07-28T20:30:45.699Z,18.10
2022-07-28T20:33:12.780Z,18.10
2022-07-28T20:35:39.858Z,18.00
2022-07-28T20:38:07.376Z,17.90
2022-07-28T20:40:37.202Z,17.90
2022-07-28T20:43:04.201Z,17.80
2022-07-28T20:45:31.923Z,17.80
2022-07-28T20:47:59.350Z,17.80
2022-07-28T20:50:26.619Z,17.70
2022-07-28T20:52:54.309Z,17.70
2022-07-28T20:55:21.478Z,17.60
2022-07-28T20:57:53.674Z,17.60
2022-07-28T21:00:22.683Z,17.50
2022-07-28T21:02:50.235Z,17.50
2022-07-28T21:05:34.757Z,17.40
2022-07-28T21:08:06.364Z,17.40
2022-07-28T21:10:37.141Z,17.30
2022-07-28T21:13:04.738Z,17.30
2022-07-28T21:15:31.968Z,17.30
2022-07-28T21:17:59.816Z,17.20
2022-07-28T21:20:27.338Z,18.00
2022-07-28T21:22:54.390Z,17.10
2022-07-28T21:25:21.527Z,17.00
2022-07-28T21:27:48.939Z,17.00
2022-07-28T21:30:15.978Z,16.90
2022-07-28T21:32:43.014Z,16.90
2022-07-28T21:35:14.218Z,16.80
2022-07-28T21:37:41.436Z,16.80
2022-07-28T21:40:08.939Z,16.70
2022-07-28T21:42:36.384Z,16.70
2022-07-28T21:45:03.807Z,16.70
2022-07-28T21:47:38.389Z,16.70
2022-07-28T21:50:06.082Z,16.60
2022-07-28T21:52:33.088Z,16.60
2022-07-28T21:55:02.001Z,16.60
2022-07-28T21:57:29.179Z,16.60
2022-07-28T21:59:56.418Z,16.60
2022-07-28T22:02:24.217Z,16.60
2022-07-28T22:04:52.442Z,16.50
2022-07-28T22:07:19.529Z,16.60
2022-07-28T22:09:46.950Z,16.50
2022-07-28T22:12:14.133Z,16.50
2022-07-28T22:14:41.179Z,16.40
2022-07-28T22:17:08.678Z,16.40
2022-07-28T22:19:36.501Z,16.40
2022-07-28T22:22:03.675Z,16.30
2022-07-28T22:24:31.186Z,16.30
2022-07-28T22:26:58.349Z,16.30
2022-07-28T22:29:25.383Z,16.30
2022-07-28T22:31:56.015Z,16.30
2022-07-28T22:34:26.567Z,16.20
2022-07-28T22:36:54.042Z,16.20
2022-07-28T22:39:21.043Z,16.10
2022-07-28T22:41:48.487Z,16.20
2022-07-28T22:44:16.402Z,16.10
2022-07-28T22:46:43.779Z,16.10
2022-07-28T22:49:10.946Z,16.00
2022-07-28T22:51:38.500Z,16.00
2022-07-28T22:54:05.608Z,15.90
2022-07-28T22:56:34.731Z,15.90
2022-07-28T22:59:03.879Z,15.90
2022-07-28T23:01:30.915Z,15.80
2022-07-28T23:03:58.966Z,15.80
2022-07-28T23:06:27.157Z,15.70
2022-07-28T23:08:54.287Z,15.70
2022-07-28T23:11:21.455Z,15.80
2022-07-28T23:13:48.935Z,15.70
2022-07-28T23:16:15.982Z,15.70
2022-07-28T23:18:44.245Z,15.70
2022-07-28T23:21:12.007Z,15.60
2022-07-28T23:23:39.225Z,15.60
2022-07-28T23:26:06.423Z,15.60
2022-07-28T23:28:34.032Z,15.50
2022-07-28T23:31:01.008Z,15.50
2022-07-28T23:33:54.659Z,15.50
2022-07-28T23:36:25.914Z,15.40
2022-07-28T23:38:57.721Z,15.40
2022-07-28T23:41:25.906Z,15.40
2022-07-28T23:43:53.434Z,15.40
2022-07-28T23:46:21.004Z,15.40
2022-07-28T23:48:49.835Z,15.40
2022-07-28T23:51:16.930Z,15.30
2022-07-28T23:53:44.211Z,15.30
2022-07-28T23:56:13.853Z,15.30
2022-07-28T23:58:41.085Z,15.30
